Jack Brusco — WDC3066 — position and weather

sailwx.info

Track history (hours):
 
Tides and Currents Weather Stations Pressure Air Temp Water Temp Dewpoint Dewpoint Depression Visibility Wind Speed Wind Dir Waves Ship Positions

Jack Brusco

Owner: Brusco Tug & Barge, Inc., Longview, WA. More information available from US FCC via Universal Licensing System and Coast Guard Vessel Documentation Center.

Last reported at 2016-May-27 04:33 UTC. Time now 2016-May-27 04:38 UTC.
Position N 46°12' W 123°23'.

Length 36 m; draft 5.2 m.

Type: Tug. MMSI: 3699086.

Date/timePositionNaut miles runAvg speedWind from/ knotsBaromVisibWave heightAir tempDewpointWater temp
2016-May-27 04:33N 46°12' W 123°23'0 0.0
2016-May-27 03:27N 46°12' W 123°23'0 0.0
2016-May-27 02:29N 46°12' W 123°23'0 0.0
2016-May-27 01:27N 46°12' W 123°23'0 0.0
2016-May-27 00:31N 46°12' W 123°23'0 0.0
2016-May-26 23:33N 46°12' W 123°23'0 0.0
2016-May-26 22:32N 46°12' W 123°23'0 0.0
2016-May-26 21:27N 46°12' W 123°23'0 0.0
2016-May-26 20:32N 46°12' W 123°23'0 0.0
2016-May-26 19:33N 46°12' W 123°23'0 0.0
2016-May-26 18:31N 46°12' W 123°23'0 0.0
2016-May-26 17:28N 46°12' W 123°23'0 0.0
2016-May-26 16:33N 46°12' W 123°23'0 0.0
2016-May-26 15:34N 46°12' W 123°23'1 1.1
2016-May-26 14:33N 46°13' W 123°25'3 2.7
2016-May-26 13:33N 46°10' W 123°24'5 5.4
2016-May-26 12:33N 46°15' W 123°27'6 6.3
2016-May-26 11:34N 46°15' W 123°36'7 7.3
2016-May-26 10:33N 46°13' W 123°46'8 7.7
2016-May-26 09:33N 46°13' W 123°57'6 6.5
2016-May-26 08:33N 46°15' W 124°06'4 4.3
2016-May-26 07:33N 46°11' W 124°10'5 4.5
2016-May-26 06:33N 46°07' W 124°10'4 4.5
2016-May-26 05:33N 46°02' W 124°09'5 4.9
2016-May-26 04:33N 45°58' W 124°08'5 5.0
2016-May-26 03:33N 45°53' W 124°07'5 5.3
2016-May-26 02:33N 45°47' W 124°06'6 5.5
2016-May-26 01:33N 45°42' W 124°05'6 5.6
2016-May-26 00:33N 45°36' W 124°05'6 6.1
2016-May-25 23:34N 45°30' W 124°05'6 6.2
2016-May-25 22:33N 45°24' W 124°05'  
2016-May-21 14:19N 45°32' W 124°04'7 8.9
2016-May-21 13:32N 45°39' W 124°04'9 9.0
2016-May-21 12:33N 45°48' W 124°06'9 8.6
2016-May-21 11:33N 45°56' W 124°07'8 8.2
2016-May-21 10:34N 46°04' W 124°09'8 8.0
2016-May-21 09:34N 46°12' W 124°09'7 6.8
2016-May-21 08:33N 46°15' W 123°60'8 7.6
2016-May-21 07:33N 46°12' W 123°50'8 8.4
2016-May-21 06:34N 46°16' W 123°39'9 8.8
2016-May-21 05:33N 46°15' W 123°26'6 5.5
2016-May-21 04:31N 46°09' W 123°24'3 2.8
2016-May-21 03:33N 46°12' W 123°23'0 0.0
2016-May-21 02:32N 46°12' W 123°23'0 0.0
2016-May-21 01:26N 46°12' W 123°23'0 0.0
2016-May-21 00:32N 46°12' W 123°23'0 0.0
2016-May-20 23:33N 46°12' W 123°23'0 0.0
2016-May-20 22:31N 46°12' W 123°23'0 0.0
2016-May-20 21:31N 46°12' W 123°23'0 0.0
2016-May-20 20:32N 46°12' W 123°23'0 0.0
2016-May-20 19:33N 46°12' W 123°23'0 0.0
2016-May-20 18:30N 46°12' W 123°23'0 0.0
2016-May-20 17:31N 46°12' W 123°23'0 0.0
2016-May-20 16:31N 46°12' W 123°23'0 0.0
2016-May-20 15:33N 46°12' W 123°23'0 0.0
2016-May-20 14:30N 46°12' W 123°23'0 0.0
2016-May-20 13:30N 46°12' W 123°23'0 0.0
2016-May-20 12:30N 46°12' W 123°23'0 0.0
2016-May-20 11:31N 46°12' W 123°23'0 0.0
2016-May-20 10:31N 46°12' W 123°23'0 0.0
2016-May-20 09:26N 46°12' W 123°23'0 0.0
2016-May-20 08:31N 46°12' W 123°23'0 0.0
2016-May-20 07:28N 46°12' W 123°23'0 0.0
2016-May-20 06:32N 46°12' W 123°23'0 0.0
2016-May-20 05:27N 46°12' W 123°23'0 0.0
2016-May-20 04:30N 46°12' W 123°23'0 0.0
2016-May-20 03:28N 46°12' W 123°23'0 0.0
2016-May-20 02:32N 46°12' W 123°23'0 0.0
2016-May-20 01:28N 46°12' W 123°23'0 0.0
2016-May-20 00:32N 46°12' W 123°23'0 0.0
2016-May-19 23:28N 46°12' W 123°23'0 0.0
2016-May-19 22:33N 46°12' W 123°23'0 0.0
2016-May-19 21:30N 46°12' W 123°23'0 0.0
2016-May-19 20:33N 46°12' W 123°23'0 0.0
2016-May-19 19:30N 46°12' W 123°23'0 0.0
2016-May-19 18:30N 46°12' W 123°23'0 0.0
2016-May-19 17:27N 46°12' W 123°23'0 0.0
2016-May-19 16:29N 46°12' W 123°23'0 0.0
2016-May-19 15:31N 46°12' W 123°23'0 0.0
2016-May-19 14:32N 46°12' W 123°23'0 0.0
2016-May-19 13:30N 46°12' W 123°23'0 0.0
2016-May-19 12:32N 46°12' W 123°23'0 0.0
2016-May-19 11:23N 46°12' W 123°23'0 0.0
2016-May-19 10:32N 46°12' W 123°23'0 0.0
2016-May-19 09:28N 46°12' W 123°23'0 0.0
2016-May-19 08:31N 46°12' W 123°23'0 0.0
2016-May-19 07:33N 46°12' W 123°23'0 0.0
2016-May-19 06:29N 46°12' W 123°23'0 0.0
2016-May-19 04:29N 46°12' W 123°23'0 0.0
2016-May-19 03:27N 46°12' W 123°23'0 0.0
2016-May-19 02:31N 46°12' W 123°23'0 0.0
2016-May-19 01:33N 46°12' W 123°23'0 0.0
2016-May-19 00:32N 46°12' W 123°23'0 0.0
2016-May-18 23:28N 46°12' W 123°23'0 0.0
2016-May-18 22:21N 46°12' W 123°23'0 0.0
2016-May-18 21:33N 46°12' W 123°23'0 0.0
2016-May-18 20:30N 46°12' W 123°23'0 0.0
2016-May-18 19:28N 46°12' W 123°23'0 0.0
2016-May-18 18:32N 46°12' W 123°23'0 0.0
2016-May-18 17:23N 46°12' W 123°23'0 0.0
2016-May-18 16:32N 46°12' W 123°23'0 0.0
2016-May-18 15:30N 46°12' W 123°23'0 0.0
2016-May-18 14:31N 46°12' W 123°23'0 0.0
2016-May-18 13:33N 46°12' W 123°23'0 0.0
2016-May-18 12:33N 46°12' W 123°23'0 0.0
2016-May-18 11:28N 46°12' W 123°23'0 0.0
2016-May-18 10:32N 46°12' W 123°23'0 0.0
2016-May-18 09:29N 46°12' W 123°23'0 0.0
2016-May-18 08:33N 46°12' W 123°23'0 0.0
2016-May-18 07:28N 46°12' W 123°23'0 0.0
2016-May-18 06:29N 46°12' W 123°23'0 0.0
2016-May-18 05:27N 46°12' W 123°23'0 0.0
2016-May-18 04:32N 46°12' W 123°23'0 0.0
2016-May-18 03:28N 46°12' W 123°23'0 0.0
2016-May-18 02:25N 46°12' W 123°23'0 0.0
2016-May-18 01:27N 46°12' W 123°23'0 0.0
2016-May-18 00:33N 46°12' W 123°23'0 0.0
2016-May-17 23:31N 46°12' W 123°23'0 0.0
2016-May-17 22:29N 46°12' W 123°23'0 0.0
2016-May-17 21:31N 46°12' W 123°23'0 0.0
2016-May-17 20:32N 46°12' W 123°23'0 0.0
2016-May-17 19:26N 46°12' W 123°23'0 0.0
2016-May-17 18:33N 46°12' W 123°23'0 0.0
2016-May-17 17:30N 46°12' W 123°23'0 0.0
2016-May-17 16:32N 46°12' W 123°23'0 0.0
2016-May-17 15:27N 46°12' W 123°23'0 0.0
2016-May-17 14:31N 46°12' W 123°23'0 0.0
2016-May-17 13:31N 46°12' W 123°23'0 0.0
2016-May-17 12:23N 46°12' W 123°23'0 0.0
2016-May-17 11:33N 46°12' W 123°23'0 0.0
2016-May-17 10:32N 46°12' W 123°23'0 0.0
2016-May-17 09:28N 46°12' W 123°23'0 0.0
2016-May-17 08:32N 46°12' W 123°23'0 0.0
2016-May-17 07:31N 46°12' W 123°23'0 0.0
2016-May-17 06:26N 46°12' W 123°23'0 0.0
2016-May-17 05:27N 46°12' W 123°23'  
Track history (hours):
 
Tides and Currents Weather Stations Pressure Air Temp Water Temp Dewpoint Dewpoint Depression Visibility Wind Speed Wind Dir Waves Ship Positions

Jack Brusco

Owner: Brusco Tug & Barge, Inc., Longview, WA. More information available from US FCC via Universal Licensing System and Coast Guard Vessel Documentation Center.

Last reported at 2016-May-27 04:33 UTC. Time now 2016-May-27 04:38 UTC.
Position N 46°12' W 123°23'.

Length 36 m; draft 5.2 m.

Type: Tug. MMSI: 3699086.

Date/timePositionNaut miles runAvg speedWind from/ knotsBaromVisibWave heightAir tempDewpointWater temp
2016-May-27 04:33N 46°12' W 123°23'0 0.0
2016-May-27 03:27N 46°12' W 123°23'0 0.0
2016-May-27 02:29N 46°12' W 123°23'0 0.0
2016-May-27 01:27N 46°12' W 123°23'0 0.0
2016-May-27 00:31N 46°12' W 123°23'0 0.0
2016-May-26 23:33N 46°12' W 123°23'0 0.0
2016-May-26 22:32N 46°12' W 123°23'0 0.0
2016-May-26 21:27N 46°12' W 123°23'0 0.0
2016-May-26 20:32N 46°12' W 123°23'0 0.0
2016-May-26 19:33N 46°12' W 123°23'0 0.0
2016-May-26 18:31N 46°12' W 123°23'0 0.0
2016-May-26 17:28N 46°12' W 123°23'0 0.0
2016-May-26 16:33N 46°12' W 123°23'0 0.0
2016-May-26 15:34N 46°12' W 123°23'1 1.1
2016-May-26 14:33N 46°13' W 123°25'3 2.7
2016-May-26 13:33N 46°10' W 123°24'5 5.4
2016-May-26 12:33N 46°15' W 123°27'6 6.3
2016-May-26 11:34N 46°15' W 123°36'7 7.3
2016-May-26 10:33N 46°13' W 123°46'8 7.7
2016-May-26 09:33N 46°13' W 123°57'6 6.5
2016-May-26 08:33N 46°15' W 124°06'4 4.3
2016-May-26 07:33N 46°11' W 124°10'5 4.5
2016-May-26 06:33N 46°07' W 124°10'4 4.5
2016-May-26 05:33N 46°02' W 124°09'5 4.9
2016-May-26 04:33N 45°58' W 124°08'5 5.0
2016-May-26 03:33N 45°53' W 124°07'5 5.3
2016-May-26 02:33N 45°47' W 124°06'6 5.5
2016-May-26 01:33N 45°42' W 124°05'6 5.6
2016-May-26 00:33N 45°36' W 124°05'6 6.1
2016-May-25 23:34N 45°30' W 124°05'6 6.2
2016-May-25 22:33N 45°24' W 124°05'  
2016-May-21 14:19N 45°32' W 124°04'7 8.9
2016-May-21 13:32N 45°39' W 124°04'9 9.0
2016-May-21 12:33N 45°48' W 124°06'9 8.6
2016-May-21 11:33N 45°56' W 124°07'8 8.2
2016-May-21 10:34N 46°04' W 124°09'8 8.0
2016-May-21 09:34N 46°12' W 124°09'7 6.8
2016-May-21 08:33N 46°15' W 123°60'8 7.6
2016-May-21 07:33N 46°12' W 123°50'8 8.4
2016-May-21 06:34N 46°16' W 123°39'9 8.8
2016-May-21 05:33N 46°15' W 123°26'6 5.5
2016-May-21 04:31N 46°09' W 123°24'3 2.8
2016-May-21 03:33N 46°12' W 123°23'0 0.0
2016-May-21 02:32N 46°12' W 123°23'0 0.0
2016-May-21 01:26N 46°12' W 123°23'0 0.0
2016-May-21 00:32N 46°12' W 123°23'0 0.0
2016-May-20 23:33N 46°12' W 123°23'0 0.0
2016-May-20 22:31N 46°12' W 123°23'0 0.0
2016-May-20 21:31N 46°12' W 123°23'0 0.0
2016-May-20 20:32N 46°12' W 123°23'0 0.0
2016-May-20 19:33N 46°12' W 123°23'0 0.0
2016-May-20 18:30N 46°12' W 123°23'0 0.0
2016-May-20 17:31N 46°12' W 123°23'0 0.0
2016-May-20 16:31N 46°12' W 123°23'0 0.0
2016-May-20 15:33N 46°12' W 123°23'0 0.0
2016-May-20 14:30N 46°12' W 123°23'0 0.0
2016-May-20 13:30N 46°12' W 123°23'0 0.0
2016-May-20 12:30N 46°12' W 123°23'0 0.0
2016-May-20 11:31N 46°12' W 123°23'0 0.0
2016-May-20 10:31N 46°12' W 123°23'0 0.0
2016-May-20 09:26N 46°12' W 123°23'0 0.0
2016-May-20 08:31N 46°12' W 123°23'0 0.0
2016-May-20 07:28N 46°12' W 123°23'0 0.0
2016-May-20 06:32N 46°12' W 123°23'0 0.0
2016-May-20 05:27N 46°12' W 123°23'0 0.0
2016-May-20 04:30N 46°12' W 123°23'0 0.0
2016-May-20 03:28N 46°12' W 123°23'0 0.0
2016-May-20 02:32N 46°12' W 123°23'0 0.0
2016-May-20 01:28N 46°12' W 123°23'0 0.0
2016-May-20 00:32N 46°12' W 123°23'0 0.0
2016-May-19 23:28N 46°12' W 123°23'0 0.0
2016-May-19 22:33N 46°12' W 123°23'0 0.0
2016-May-19 21:30N 46°12' W 123°23'0 0.0
2016-May-19 20:33N 46°12' W 123°23'0 0.0
2016-May-19 19:30N 46°12' W 123°23'0 0.0
2016-May-19 18:30N 46°12' W 123°23'0 0.0
2016-May-19 17:27N 46°12' W 123°23'0 0.0
2016-May-19 16:29N 46°12' W 123°23'0 0.0
2016-May-19 15:31N 46°12' W 123°23'0 0.0
2016-May-19 14:32N 46°12' W 123°23'0 0.0
2016-May-19 13:30N 46°12' W 123°23'0 0.0
2016-May-19 12:32N 46°12' W 123°23'0 0.0
2016-May-19 11:23N 46°12' W 123°23'0 0.0
2016-May-19 10:32N 46°12' W 123°23'0 0.0
2016-May-19 09:28N 46°12' W 123°23'0 0.0
2016-May-19 08:31N 46°12' W 123°23'0 0.0
2016-May-19 07:33N 46°12' W 123°23'0 0.0
2016-May-19 06:29N 46°12' W 123°23'0 0.0
2016-May-19 04:29N 46°12' W 123°23'0 0.0
2016-May-19 03:27N 46°12' W 123°23'0 0.0
2016-May-19 02:31N 46°12' W 123°23'0 0.0
2016-May-19 01:33N 46°12' W 123°23'0 0.0
2016-May-19 00:32N 46°12' W 123°23'0 0.0
2016-May-18 23:28N 46°12' W 123°23'0 0.0
2016-May-18 22:21N 46°12' W 123°23'0 0.0
2016-May-18 21:33N 46°12' W 123°23'0 0.0
2016-May-18 20:30N 46°12' W 123°23'0 0.0
2016-May-18 19:28N 46°12' W 123°23'0 0.0
2016-May-18 18:32N 46°12' W 123°23'0 0.0
2016-May-18 17:23N 46°12' W 123°23'0 0.0
2016-May-18 16:32N 46°12' W 123°23'0 0.0
2016-May-18 15:30N 46°12' W 123°23'0 0.0
2016-May-18 14:31N 46°12' W 123°23'0 0.0
2016-May-18 13:33N 46°12' W 123°23'0 0.0
2016-May-18 12:33N 46°12' W 123°23'0 0.0
2016-May-18 11:28N 46°12' W 123°23'0 0.0
2016-May-18 10:32N 46°12' W 123°23'0 0.0
2016-May-18 09:29N 46°12' W 123°23'0 0.0
2016-May-18 08:33N 46°12' W 123°23'0 0.0
2016-May-18 07:28N 46°12' W 123°23'0 0.0
2016-May-18 06:29N 46°12' W 123°23'0 0.0
2016-May-18 05:27N 46°12' W 123°23'0 0.0
2016-May-18 04:32N 46°12' W 123°23'0 0.0
2016-May-18 03:28N 46°12' W 123°23'0 0.0
2016-May-18 02:25N 46°12' W 123°23'0 0.0
2016-May-18 01:27N 46°12' W 123°23'0 0.0
2016-May-18 00:33N 46°12' W 123°23'0 0.0
2016-May-17 23:31N 46°12' W 123°23'0 0.0
2016-May-17 22:29N 46°12' W 123°23'0 0.0
2016-May-17 21:31N 46°12' W 123°23'0 0.0
2016-May-17 20:32N 46°12' W 123°23'0 0.0
2016-May-17 19:26N 46°12' W 123°23'0 0.0
2016-May-17 18:33N 46°12' W 123°23'0 0.0
2016-May-17 17:30N 46°12' W 123°23'0 0.0
2016-May-17 16:32N 46°12' W 123°23'0 0.0
2016-May-17 15:27N 46°12' W 123°23'0 0.0
2016-May-17 14:31N 46°12' W 123°23'0 0.0
2016-May-17 13:31N 46°12' W 123°23'0 0.0
2016-May-17 12:23N 46°12' W 123°23'0 0.0
2016-May-17 11:33N 46°12' W 123°23'0 0.0
2016-May-17 10:32N 46°12' W 123°23'0 0.0
2016-May-17 09:28N 46°12' W 123°23'0 0.0
2016-May-17 08:32N 46°12' W 123°23'0 0.0
2016-May-17 07:31N 46°12' W 123°23'0 0.0
2016-May-17 06:26N 46°12' W 123°23'0 0.0
2016-May-17 05:27N 46°12' W 123°23'  

Dump ship's entire track history